Portada
METAR-TAF:

METAR-TAF

Aeropuertos :

Aeropuerto de Reikiavik

Reikiavik, Islandia

latitud: 64-08N, longitud: 021-54W, altitud: 54 m

Observación

El informe se hizo hace 1 hora y 9 minutos, a las 14:00 UTC
Viento 8 kt del este-noreste
Temperatura 10°C
Humedad 66%
Presión 984 hPa
Visibilidad 10 km o más
Escasas nubes a una altura de 2400 ft
Nubes dispersas a una altura de 4600 ft

METAR: BIRK 241400Z 07008KT 9999 FEW024 SCT046 10/04 Q0984

Hora: 15:09 (15:09 UTC)

Pronóstico

El informe se hizo hace 1 hora y 27 minutos, a las 13:42 UTC
Pronóstico válido del 24 a las 15 UTC al 25 a las 15 UTC
Viento 10 kt del este
Visibilidad 10 km o más
Nubes dispersas a una altura de 1500 ft
Cielo nuboso a una altura de 4500 ft
Temporalmente
del 24 a las 18 UTC al 25 a las 01 UTC
Cielo nuboso a una altura de 1500 ft
lluvia

TAF: BIRK 241342Z 2415/2515 09010KT 9999 SCT015 BKN045 TX09/2415Z TN05/2506Z TEMPO 2418/2501 RA BKN015

Observaciones y pronósticos meteorológicos de más de 4000 aeropuertos (mensajes METAR y TAF).

Los puntos amarillos y rojos representan las estaciones disponibles.

Ponga el ratón en el punto deseado para ver el nombre de la estación.

Haga clic para ver las observaciones y los pronósticos meteorológicos.

Para cambiar el mapa : haga clic en los botones verdes con una cruz de color negro para hacer un zoom, en el botón verde con un guión para alejar o en las flechas verdes para mapas adyacentes.


METAR-TAF: